Wilson Cadiz — 8PSY — position and weather

sailwx.info

Track history (hours):
 
Tides and Currents Weather Stations Pressure Air Temp Water Temp Dewpoint Dewpoint Depression Visibility Wind Speed Wind Dir Waves Ship Positions

Wilson Cadiz

Last reported at 2017-Feb-19 10:06 UTC. Time now 2017-Feb-19 23:29 UTC.
Position N 66°49' E 013°56'.

Length 100 m; draft 5.7 m.

Type: Ship. MMSI: 314216000.

Date/timePositionNaut miles runAvg speedWind from/ knotsBaromVisibWave heightAir tempDewpointWater temp
2017-Feb-19 10:06N 66°49' E 013°56'0 0.0
2017-Feb-19 09:12N 66°49' E 013°56'0 0.0
2017-Feb-18 11:30N 66°49' E 013°56'0 0.0
2017-Feb-18 09:33N 66°49' E 013°56'0 0.0
2017-Feb-18 08:27N 66°49' E 013°56'0 0.0
2017-Feb-18 07:33N 66°49' E 013°56'0 0.0
2017-Feb-18 06:33N 66°49' E 013°56'0 0.0
2017-Feb-18 05:27N 66°49' E 013°56'0 0.0
2017-Feb-18 04:21N 66°49' E 013°56'0 0.0
2017-Feb-18 03:33N 66°49' E 013°56'0 0.0
2017-Feb-18 02:33N 66°49' E 013°56'0 0.0
2017-Feb-18 01:33N 66°49' E 013°56'0 0.0
2017-Feb-18 00:33N 66°49' E 013°56'0 0.0
2017-Feb-17 23:33N 66°49' E 013°56'0 0.0
2017-Feb-17 22:33N 66°49' E 013°56'0 0.0
2017-Feb-17 21:33N 66°49' E 013°56'0 0.0
2017-Feb-17 20:33N 66°49' E 013°56'0 0.0
2017-Feb-17 19:33N 66°49' E 013°56'0 0.0
2017-Feb-17 18:33N 66°49' E 013°56'0 0.0
2017-Feb-17 17:09N 66°49' E 013°56'0 0.0
2017-Feb-17 16:21N 66°49' E 013°56'0 0.0
2017-Feb-17 15:06N 66°49' E 013°56'0 0.0
2017-Feb-17 12:33N 66°49' E 013°56'0 0.0
2017-Feb-17 11:27N 66°49' E 013°56'0 0.0
2017-Feb-17 10:27N 66°49' E 013°56'0 0.0
2017-Feb-17 09:33N 66°49' E 013°56'0 0.0
2017-Feb-17 08:33N 66°49' E 013°56'0 0.0
2017-Feb-17 07:33N 66°49' E 013°56'0 0.0
2017-Feb-17 06:21N 66°49' E 013°56'0 0.0
2017-Feb-17 05:27N 66°49' E 013°56'0 0.0
2017-Feb-17 04:33N 66°49' E 013°56'0 0.0
2017-Feb-17 02:33N 66°49' E 013°56'0 0.0
2017-Feb-17 01:15N 66°49' E 013°56'0 0.0
2017-Feb-17 00:27N 66°49' E 013°56'0 0.0
2017-Feb-16 22:09N 66°49' E 013°56'0 0.0
2017-Feb-16 21:33N 66°49' E 013°56'0 0.0
2017-Feb-16 20:33N 66°49' E 013°56'0 0.0
2017-Feb-16 18:09N 66°49' E 013°56'0 0.0
2017-Feb-16 15:33N 66°49' E 013°56'0 0.0
2017-Feb-16 13:33N 66°49' E 013°56'0 0.0
2017-Feb-16 12:21N 66°49' E 013°56'0 0.0
2017-Feb-16 11:21N 66°49' E 013°56'0 0.0
2017-Feb-16 10:27N 66°49' E 013°56'0 0.0
2017-Feb-16 04:18N 66°49' E 013°56'0 0.0
2017-Feb-15 18:27N 66°49' E 013°56'0 0.0
2017-Feb-13 15:05N 66°49' E 013°56'1 1.6
2017-Feb-13 14:33N 66°48' E 013°54'9 8.5
2017-Feb-13 13:33N 66°52' E 013°34'7 7.4
2017-Feb-13 12:33N 66°59' E 013°35'9 9.0
2017-Feb-13 11:33N 67°04' E 013°54'7 6.8
2017-Feb-13 10:33N 67°11' E 013°56'1010.0
2017-Feb-13 09:33N 67°14' E 013°32'10 9.8
2017-Feb-13 08:33N 67°16' E 013°07'43 4.3
2017-Feb-12 22:33N 67°55' E 012°17'6 6.3
2017-Feb-12 21:33N 67°60' E 012°26'6 6.0
2017-Feb-12 20:33N 68°05' E 012°35'6 6.0
2017-Feb-12 19:32N 68°10' E 012°44'5 5.2
2017-Feb-12 18:33N 68°14' E 012°51'5 4.8
2017-Feb-12 17:33N 68°18' E 012°58'4 4.2
2017-Feb-12 16:32N 68°22' E 013°06'4 4.5
2017-Feb-12 15:33N 68°25' E 013°13'4 4.4
2017-Feb-12 14:33N 68°29' E 013°20'4 3.9
2017-Feb-12 13:33N 68°32' E 013°27'3 3.5
2017-Feb-12 12:33N 68°34' E 013°33'3 3.1
2017-Feb-12 11:33N 68°37' E 013°39'3 2.5
2017-Feb-12 10:33N 68°39' E 013°43'2 2.2
2017-Feb-12 09:33N 68°41' E 013°46'2 2.1
2017-Feb-12 08:33N 68°42' E 013°50'2 2.0
2017-Feb-12 07:33N 68°44' E 013°53'2 2.3
2017-Feb-12 06:33N 68°46' E 013°57'3 2.9
2017-Feb-12 05:33N 68°48' E 014°01'3 3.2
2017-Feb-12 04:33N 68°51' E 014°07'3 3.2
2017-Feb-12 03:33N 68°53' E 014°12'3 2.7
2017-Feb-12 02:33N 68°55' E 014°17'3 2.6
2017-Feb-12 01:33N 68°57' E 014°21'4 4.2
2017-Feb-12 00:34N 69°00' E 014°29'5 5.1
2017-Feb-11 23:34N 69°04' E 014°37'6 6.4
2017-Feb-11 22:33N 69°10' E 014°49'7 7.0
2017-Feb-11 21:33N 69°15' E 015°03'7 7.1
2017-Feb-11 20:33N 69°19' E 015°17'7 7.2
2017-Feb-11 19:33N 69°25' E 015°31'8 8.0
2017-Feb-11 18:32N 69°30' E 015°49'8 7.7
2017-Feb-11 17:33N 69°35' E 016°05'9 8.5
2017-Feb-11 16:33N 69°41' E 016°24'8 8.5
2017-Feb-11 15:33N 69°46' E 016°42'9 9.3
2017-Feb-11 14:33N 69°52' E 017°03'10 9.7
2017-Feb-11 13:33N 69°58' E 017°24'10 9.7
2017-Feb-11 12:33N 70°05' E 017°46'9 9.4
2017-Feb-11 11:34N 70°11' E 018°07'9 8.6
2017-Feb-11 10:33N 70°16' E 018°27'8 8.5
2017-Feb-11 09:33N 70°21' E 018°48'9 8.5
2017-Feb-11 08:33N 70°25' E 019°10'9 9.1
2017-Feb-11 07:33N 70°29' E 019°34'10 9.6
2017-Feb-11 06:33N 70°34' E 019°60'1010.0
2017-Feb-11 05:33N 70°39' E 020°26'23 9.4
2017-Feb-11 03:07N 70°48' E 021°30'5 8.8
2017-Feb-11 02:33N 70°50' E 021°43'8 8.3
2017-Feb-11 01:33N 70°53' E 022°07'8 8.0
2017-Feb-11 00:33N 70°57' E 022°29'9 8.6
2017-Feb-10 23:33N 70°60' E 022°54'9 9.0
2017-Feb-10 22:33N 71°03' E 023°18'9 9.1
2017-Feb-10 21:33N 71°07' E 023°44'10 9.9
2017-Feb-10 20:33N 71°10' E 024°13'1110.7
2017-Feb-10 19:33N 71°12' E 024°46'1110.7
2017-Feb-10 18:33N 71°14' E 025°19'1010.2
2017-Feb-10 17:33N 71°14' E 025°50'1010.0
2017-Feb-10 16:33N 71°15' E 026°21'10 9.8
2017-Feb-10 15:34N 71°15' E 026°52'1010.0
2017-Feb-10 14:34N 71°15' E 027°23'9 9.3
2017-Feb-10 13:33N 71°15' E 027°52'9 9.3
2017-Feb-10 12:33N 71°11' E 028°19'10 9.5
2017-Feb-10 11:33N 71°06' E 028°44'1010.2
2017-Feb-10 10:33N 71°01' E 029°12'1111.1
2017-Feb-10 09:33N 70°56' E 029°41'1111.1
2017-Feb-10 08:33N 70°51' E 030°11'1110.9
2017-Feb-10 07:33N 70°44' E 030°37'1110.7
2017-Feb-10 06:33N 70°37' E 031°02'1110.8
2017-Feb-10 05:33N 70°30' E 031°27'96 8.0
2017-Feb-09 17:33N 69°00' E 033°03'1 1.0
2017-Feb-09 16:31N 68°59' E 033°03'0 0.0
2017-Feb-09 15:31N 68°59' E 033°03'0 0.0
2017-Feb-09 14:31N 68°59' E 033°03'0 0.0
2017-Feb-09 13:31N 68°59' E 033°03'0 0.0
2017-Feb-09 12:31N 68°59' E 033°03'0 0.0
2017-Feb-09 11:31N 68°59' E 033°03'0 0.0
2017-Feb-09 10:31N 68°59' E 033°03'  
Track history (hours):
 
Tides and Currents Weather Stations Pressure Air Temp Water Temp Dewpoint Dewpoint Depression Visibility Wind Speed Wind Dir Waves Ship Positions

Wilson Cadiz

Last reported at 2017-Feb-19 10:06 UTC. Time now 2017-Feb-19 23:29 UTC.
Position N 66°49' E 013°56'.

Length 100 m; draft 5.7 m.

Type: Ship. MMSI: 314216000.

Date/timePositionNaut miles runAvg speedWind from/ knotsBaromVisibWave heightAir tempDewpointWater temp
2017-Feb-19 10:06N 66°49' E 013°56'0 0.0
2017-Feb-19 09:12N 66°49' E 013°56'0 0.0
2017-Feb-18 11:30N 66°49' E 013°56'0 0.0
2017-Feb-18 09:33N 66°49' E 013°56'0 0.0
2017-Feb-18 08:27N 66°49' E 013°56'0 0.0
2017-Feb-18 07:33N 66°49' E 013°56'0 0.0
2017-Feb-18 06:33N 66°49' E 013°56'0 0.0
2017-Feb-18 05:27N 66°49' E 013°56'0 0.0
2017-Feb-18 04:21N 66°49' E 013°56'0 0.0
2017-Feb-18 03:33N 66°49' E 013°56'0 0.0
2017-Feb-18 02:33N 66°49' E 013°56'0 0.0
2017-Feb-18 01:33N 66°49' E 013°56'0 0.0
2017-Feb-18 00:33N 66°49' E 013°56'0 0.0
2017-Feb-17 23:33N 66°49' E 013°56'0 0.0
2017-Feb-17 22:33N 66°49' E 013°56'0 0.0
2017-Feb-17 21:33N 66°49' E 013°56'0 0.0
2017-Feb-17 20:33N 66°49' E 013°56'0 0.0
2017-Feb-17 19:33N 66°49' E 013°56'0 0.0
2017-Feb-17 18:33N 66°49' E 013°56'0 0.0
2017-Feb-17 17:09N 66°49' E 013°56'0 0.0
2017-Feb-17 16:21N 66°49' E 013°56'0 0.0
2017-Feb-17 15:06N 66°49' E 013°56'0 0.0
2017-Feb-17 12:33N 66°49' E 013°56'0 0.0
2017-Feb-17 11:27N 66°49' E 013°56'0 0.0
2017-Feb-17 10:27N 66°49' E 013°56'0 0.0
2017-Feb-17 09:33N 66°49' E 013°56'0 0.0
2017-Feb-17 08:33N 66°49' E 013°56'0 0.0
2017-Feb-17 07:33N 66°49' E 013°56'0 0.0
2017-Feb-17 06:21N 66°49' E 013°56'0 0.0
2017-Feb-17 05:27N 66°49' E 013°56'0 0.0
2017-Feb-17 04:33N 66°49' E 013°56'0 0.0
2017-Feb-17 02:33N 66°49' E 013°56'0 0.0
2017-Feb-17 01:15N 66°49' E 013°56'0 0.0
2017-Feb-17 00:27N 66°49' E 013°56'0 0.0
2017-Feb-16 22:09N 66°49' E 013°56'0 0.0
2017-Feb-16 21:33N 66°49' E 013°56'0 0.0
2017-Feb-16 20:33N 66°49' E 013°56'0 0.0
2017-Feb-16 18:09N 66°49' E 013°56'0 0.0
2017-Feb-16 15:33N 66°49' E 013°56'0 0.0
2017-Feb-16 13:33N 66°49' E 013°56'0 0.0
2017-Feb-16 12:21N 66°49' E 013°56'0 0.0
2017-Feb-16 11:21N 66°49' E 013°56'0 0.0
2017-Feb-16 10:27N 66°49' E 013°56'0 0.0
2017-Feb-16 04:18N 66°49' E 013°56'0 0.0
2017-Feb-15 18:27N 66°49' E 013°56'0 0.0
2017-Feb-13 15:05N 66°49' E 013°56'1 1.6
2017-Feb-13 14:33N 66°48' E 013°54'9 8.5
2017-Feb-13 13:33N 66°52' E 013°34'7 7.4
2017-Feb-13 12:33N 66°59' E 013°35'9 9.0
2017-Feb-13 11:33N 67°04' E 013°54'7 6.8
2017-Feb-13 10:33N 67°11' E 013°56'1010.0
2017-Feb-13 09:33N 67°14' E 013°32'10 9.8
2017-Feb-13 08:33N 67°16' E 013°07'43 4.3
2017-Feb-12 22:33N 67°55' E 012°17'6 6.3
2017-Feb-12 21:33N 67°60' E 012°26'6 6.0
2017-Feb-12 20:33N 68°05' E 012°35'6 6.0
2017-Feb-12 19:32N 68°10' E 012°44'5 5.2
2017-Feb-12 18:33N 68°14' E 012°51'5 4.8
2017-Feb-12 17:33N 68°18' E 012°58'4 4.2
2017-Feb-12 16:32N 68°22' E 013°06'4 4.5
2017-Feb-12 15:33N 68°25' E 013°13'4 4.4
2017-Feb-12 14:33N 68°29' E 013°20'4 3.9
2017-Feb-12 13:33N 68°32' E 013°27'3 3.5
2017-Feb-12 12:33N 68°34' E 013°33'3 3.1
2017-Feb-12 11:33N 68°37' E 013°39'3 2.5
2017-Feb-12 10:33N 68°39' E 013°43'2 2.2
2017-Feb-12 09:33N 68°41' E 013°46'2 2.1
2017-Feb-12 08:33N 68°42' E 013°50'2 2.0
2017-Feb-12 07:33N 68°44' E 013°53'2 2.3
2017-Feb-12 06:33N 68°46' E 013°57'3 2.9
2017-Feb-12 05:33N 68°48' E 014°01'3 3.2
2017-Feb-12 04:33N 68°51' E 014°07'3 3.2
2017-Feb-12 03:33N 68°53' E 014°12'3 2.7
2017-Feb-12 02:33N 68°55' E 014°17'3 2.6
2017-Feb-12 01:33N 68°57' E 014°21'4 4.2
2017-Feb-12 00:34N 69°00' E 014°29'5 5.1
2017-Feb-11 23:34N 69°04' E 014°37'6 6.4
2017-Feb-11 22:33N 69°10' E 014°49'7 7.0
2017-Feb-11 21:33N 69°15' E 015°03'7 7.1
2017-Feb-11 20:33N 69°19' E 015°17'7 7.2
2017-Feb-11 19:33N 69°25' E 015°31'8 8.0
2017-Feb-11 18:32N 69°30' E 015°49'8 7.7
2017-Feb-11 17:33N 69°35' E 016°05'9 8.5
2017-Feb-11 16:33N 69°41' E 016°24'8 8.5
2017-Feb-11 15:33N 69°46' E 016°42'9 9.3
2017-Feb-11 14:33N 69°52' E 017°03'10 9.7
2017-Feb-11 13:33N 69°58' E 017°24'10 9.7
2017-Feb-11 12:33N 70°05' E 017°46'9 9.4
2017-Feb-11 11:34N 70°11' E 018°07'9 8.6
2017-Feb-11 10:33N 70°16' E 018°27'8 8.5
2017-Feb-11 09:33N 70°21' E 018°48'9 8.5
2017-Feb-11 08:33N 70°25' E 019°10'9 9.1
2017-Feb-11 07:33N 70°29' E 019°34'10 9.6
2017-Feb-11 06:33N 70°34' E 019°60'1010.0
2017-Feb-11 05:33N 70°39' E 020°26'23 9.4
2017-Feb-11 03:07N 70°48' E 021°30'5 8.8
2017-Feb-11 02:33N 70°50' E 021°43'8 8.3
2017-Feb-11 01:33N 70°53' E 022°07'8 8.0
2017-Feb-11 00:33N 70°57' E 022°29'9 8.6
2017-Feb-10 23:33N 70°60' E 022°54'9 9.0
2017-Feb-10 22:33N 71°03' E 023°18'9 9.1
2017-Feb-10 21:33N 71°07' E 023°44'10 9.9
2017-Feb-10 20:33N 71°10' E 024°13'1110.7
2017-Feb-10 19:33N 71°12' E 024°46'1110.7
2017-Feb-10 18:33N 71°14' E 025°19'1010.2
2017-Feb-10 17:33N 71°14' E 025°50'1010.0
2017-Feb-10 16:33N 71°15' E 026°21'10 9.8
2017-Feb-10 15:34N 71°15' E 026°52'1010.0
2017-Feb-10 14:34N 71°15' E 027°23'9 9.3
2017-Feb-10 13:33N 71°15' E 027°52'9 9.3
2017-Feb-10 12:33N 71°11' E 028°19'10 9.5
2017-Feb-10 11:33N 71°06' E 028°44'1010.2
2017-Feb-10 10:33N 71°01' E 029°12'1111.1
2017-Feb-10 09:33N 70°56' E 029°41'1111.1
2017-Feb-10 08:33N 70°51' E 030°11'1110.9
2017-Feb-10 07:33N 70°44' E 030°37'1110.7
2017-Feb-10 06:33N 70°37' E 031°02'1110.8
2017-Feb-10 05:33N 70°30' E 031°27'96 8.0
2017-Feb-09 17:33N 69°00' E 033°03'1 1.0
2017-Feb-09 16:31N 68°59' E 033°03'0 0.0
2017-Feb-09 15:31N 68°59' E 033°03'0 0.0
2017-Feb-09 14:31N 68°59' E 033°03'0 0.0
2017-Feb-09 13:31N 68°59' E 033°03'0 0.0
2017-Feb-09 12:31N 68°59' E 033°03'0 0.0
2017-Feb-09 11:31N 68°59' E 033°03'0 0.0
2017-Feb-09 10:31N 68°59' E 033°03'  

Dump ship's entire track history